sensor_id;sensor_type;location;lat;lon;timestamp;pressure;altitude;pressure_sealevel;temperature;humidity
35676;BME280;21790;42.668;23.298;2023-01-31T00:01:34;94198.63;;;7.94;38.76
35676;BME280;21790;42.668;23.298;2023-01-31T00:04:02;94208.25;;;7.89;39.41
35676;BME280;21790;42.668;23.298;2023-01-31T00:06:31;94204.72;;;7.98;39.24
35676;BME280;21790;42.668;23.298;2023-01-31T00:08:58;94212.50;;;7.81;39.39
35676;BME280;21790;42.668;23.298;2023-01-31T00:11:25;94208.25;;;7.89;39.31
35676;BME280;21790;42.668;23.298;2023-01-31T00:13:52;94198.00;;;7.99;38.73
35676;BME280;21790;42.668;23.298;2023-01-31T00:16:19;94205.78;;;7.91;38.94
35676;BME280;21790;42.668;23.298;2023-01-31T00:18:45;94188.22;;;7.98;39.12
35676;BME280;21790;42.668;23.298;2023-01-31T00:21:18;94203.06;;;8.01;38.52
35676;BME280;21790;42.668;23.298;2023-01-31T00:23:45;94185.31;;;7.83;38.78
35676;BME280;21790;42.668;23.298;2023-01-31T00:26:15;94206.81;;;7.76;39.68
35676;BME280;21790;42.668;23.298;2023-01-31T00:28:42;94196.47;;;7.89;39.55
35676;BME280;21790;42.668;23.298;2023-01-31T00:31:09;94205.22;;;8.06;39.16
35676;BME280;21790;42.668;23.298;2023-01-31T00:33:39;94198.78;;;7.99;39.25
35676;BME280;21790;42.668;23.298;2023-01-31T00:36:07;94206.59;;;8.01;38.88
35676;BME280;21790;42.668;23.298;2023-01-31T00:38:33;94202.13;;;7.85;39.54
35676;BME280;21790;42.668;23.298;2023-01-31T00:40:59;94203.13;;;7.70;39.32
35676;BME280;21790;42.668;23.298;2023-01-31T00:43:25;94204.84;;;7.76;39.78
35676;BME280;21790;42.668;23.298;2023-01-31T00:45:50;94213.00;;;7.49;40.49
35676;BME280;21790;42.668;23.298;2023-01-31T00:48:16;94212.13;;;7.61;40.58
35676;BME280;21790;42.668;23.298;2023-01-31T00:50:46;94207.84;;;7.60;40.46
35676;BME280;21790;42.668;23.298;2023-01-31T00:53:11;94202.00;;;7.49;40.26
35676;BME280;21790;42.668;23.298;2023-01-31T00:55:37;94194.09;;;7.60;39.94
35676;BME280;21790;42.668;23.298;2023-01-31T00:58:05;94195.97;;;7.63;40.11
35676;BME280;21790;42.668;23.298;2023-01-31T01:00:31;94198.06;;;7.59;40.06
35676;BME280;21790;42.668;23.298;2023-01-31T01:02:57;94197.78;;;7.57;40.25
35676;BME280;21790;42.668;23.298;2023-01-31T01:05:23;94202.34;;;7.51;40.33
35676;BME280;21790;42.668;23.298;2023-01-31T01:07:48;94213.69;;;7.62;40.08
35676;BME280;21790;42.668;23.298;2023-01-31T01:10:14;94216.28;;;7.75;39.64
35676;BME280;21790;42.668;23.298;2023-01-31T01:12:41;94212.91;;;7.62;40.16
35676;BME280;21790;42.668;23.298;2023-01-31T01:15:07;94225.63;;;7.77;39.96
35676;BME280;21790;42.668;23.298;2023-01-31T01:17:33;94214.88;;;7.61;40.17
35676;BME280;21790;42.668;23.298;2023-01-31T01:19:58;94222.53;;;7.66;40.10
35676;BME280;21790;42.668;23.298;2023-01-31T01:22:28;94213.53;;;7.75;40.05
35676;BME280;21790;42.668;23.298;2023-01-31T01:24:54;94199.63;;;7.69;39.92
35676;BME280;21790;42.668;23.298;2023-01-31T01:27:19;94203.34;;;7.93;39.07
35676;BME280;21790;42.668;23.298;2023-01-31T01:29:45;94179.81;;;7.92;37.89
35676;BME280;21790;42.668;23.298;2023-01-31T01:32:10;94183.97;;;8.15;37.24
35676;BME280;21790;42.668;23.298;2023-01-31T01:34:38;94183.63;;;8.13;36.62
35676;BME280;21790;42.668;23.298;2023-01-31T01:37:07;94175.25;;;8.17;35.97
35676;BME280;21790;42.668;23.298;2023-01-31T01:39:47;94185.34;;;8.20;35.31
35676;BME280;21790;42.668;23.298;2023-01-31T01:42:19;94184.31;;;8.45;34.37
35676;BME280;21790;42.668;23.298;2023-01-31T01:47:39;94177.97;;;8.80;32.84
35676;BME280;21790;42.668;23.298;2023-01-31T01:50:29;94192.06;;;8.64;32.55
35676;BME280;21790;42.668;23.298;2023-01-31T01:55:33;94194.63;;;8.86;33.24
35676;BME280;21790;42.668;23.298;2023-01-31T01:58:05;94182.41;;;8.87;32.88
35676;BME280;21790;42.668;23.298;2023-01-31T02:00:32;94187.59;;;8.85;33.66
35676;BME280;21790;42.668;23.298;2023-01-31T02:03:00;94178.91;;;8.77;32.86
35676;BME280;21790;42.668;23.298;2023-01-31T02:05:34;94178.56;;;8.94;33.30
35676;BME280;21790;42.668;23.298;2023-01-31T02:08:01;94180.13;;;8.76;33.75
35676;BME280;21790;42.668;23.298;2023-01-31T02:10:55;94188.16;;;9.07;32.77
35676;BME280;21790;42.668;23.298;2023-01-31T02:13:23;94193.97;;;9.00;32.03
35676;BME280;21790;42.668;23.298;2023-01-31T02:15:48;94204.34;;;8.45;32.46
35676;BME280;21790;42.668;23.298;2023-01-31T02:18:14;94200.97;;;8.59;32.89
35676;BME280;21790;42.668;23.298;2023-01-31T02:26:51;94203.19;;;8.97;32.38
35676;BME280;21790;42.668;23.298;2023-01-31T02:40:35;94198.75;;;9.00;31.99
35676;BME280;21790;42.668;23.298;2023-01-31T02:43:51;94196.78;;;8.91;31.86
35676;BME280;21790;42.668;23.298;2023-01-31T02:46:07;94201.25;;;8.70;32.37
35676;BME280;21790;42.668;23.298;2023-01-31T02:48:57;94203.25;;;8.52;33.14
35676;BME280;21790;42.668;23.298;2023-01-31T02:51:29;94206.59;;;8.83;33.21
35676;BME280;21790;42.668;23.298;2023-01-31T02:54:17;94220.31;;;9.01;33.02
35676;BME280;21790;42.668;23.298;2023-01-31T02:56:47;94223.69;;;8.96;33.23
35676;BME280;21790;42.668;23.298;2023-01-31T02:59:18;94232.16;;;8.84;33.12
35676;BME280;21790;42.668;23.298;2023-01-31T03:01:49;94223.59;;;8.81;33.47
35676;BME280;21790;42.668;23.298;2023-01-31T03:04:19;94231.84;;;8.81;33.35
35676;BME280;21790;42.668;23.298;2023-01-31T03:06:54;94229.41;;;8.74;32.94
35676;BME280;21790;42.668;23.298;2023-01-31T03:20:19;94270.09;;;8.79;34.56
35676;BME280;21790;42.668;23.298;2023-01-31T03:22:59;94253.28;;;8.68;34.98
35676;BME280;21790;42.668;23.298;2023-01-31T03:25:28;94268.88;;;8.53;35.31
35676;BME280;21790;42.668;23.298;2023-01-31T03:27:58;94271.97;;;8.55;35.84
35676;BME280;21790;42.668;23.298;2023-01-31T03:31:16;94275.78;;;8.67;35.91
35676;BME280;21790;42.668;23.298;2023-01-31T03:33:26;94275.03;;;8.66;35.58
35676;BME280;21790;42.668;23.298;2023-01-31T03:41:47;94299.47;;;8.37;37.20
35676;BME280;21790;42.668;23.298;2023-01-31T03:46:46;94315.25;;;8.55;37.30
35676;BME280;21790;42.668;23.298;2023-01-31T03:49:17;94312.00;;;8.47;37.51
35676;BME280;21790;42.668;23.298;2023-01-31T03:51:48;94312.03;;;8.65;37.52
35676;BME280;21790;42.668;23.298;2023-01-31T03:54:22;94315.56;;;8.66;37.79
35676;BME280;21790;42.668;23.298;2023-01-31T03:57:13;94305.91;;;8.43;38.08
35676;BME280;21790;42.668;23.298;2023-01-31T03:59:42;94314.00;;;8.37;38.78
35676;BME280;21790;42.668;23.298;2023-01-31T04:02:12;94308.28;;;8.23;38.93
35676;BME280;21790;42.668;23.298;2023-01-31T04:04:46;94322.19;;;8.19;39.35
35676;BME280;21790;42.668;23.298;2023-01-31T04:07:13;94318.63;;;8.10;39.24
35676;BME280;21790;42.668;23.298;2023-01-31T04:09:38;94311.03;;;8.23;39.69
35676;BME280;21790;42.668;23.298;2023-01-31T04:12:04;94322.72;;;8.36;39.25
35676;BME280;21790;42.668;23.298;2023-01-31T04:14:30;94332.47;;;8.28;39.42
35676;BME280;21790;42.668;23.298;2023-01-31T04:16:55;94327.25;;;8.21;39.57
35676;BME280;21790;42.668;23.298;2023-01-31T04:19:21;94326.63;;;8.26;39.47
35676;BME280;21790;42.668;23.298;2023-01-31T04:21:46;94326.63;;;8.17;40.27
35676;BME280;21790;42.668;23.298;2023-01-31T04:24:12;94344.09;;;7.92;40.66
35676;BME280;21790;42.668;23.298;2023-01-31T04:26:37;94340.44;;;7.55;41.43
35676;BME280;21790;42.668;23.298;2023-01-31T04:29:03;94331.94;;;7.71;41.42
35676;BME280;21790;42.668;23.298;2023-01-31T04:31:29;94344.09;;;7.92;41.02
35676;BME280;21790;42.668;23.298;2023-01-31T04:33:55;94341.94;;;7.87;41.28
35676;BME280;21790;42.668;23.298;2023-01-31T04:36:23;94338.50;;;8.05;41.14
35676;BME280;21790;42.668;23.298;2023-01-31T04:38:49;94350.09;;;7.99;41.08
35676;BME280;21790;42.668;23.298;2023-01-31T04:41:14;94335.69;;;7.86;41.26
35676;BME280;21790;42.668;23.298;2023-01-31T04:43:40;94345.16;;;7.85;41.60
35676;BME280;21790;42.668;23.298;2023-01-31T04:46:05;94340.47;;;7.64;41.85
35676;BME280;21790;42.668;23.298;2023-01-31T04:48:31;94345.97;;;7.64;41.95
35676;BME280;21790;42.668;23.298;2023-01-31T04:50:57;94343.03;;;7.58;42.15
35676;BME280;21790;42.668;23.298;2023-01-31T04:53:22;94360.88;;;7.54;42.17
35676;BME280;21790;42.668;23.298;2023-01-31T04:55:48;94358.13;;;7.54;42.32
35676;BME280;21790;42.668;23.298;2023-01-31T04:58:14;94363.63;;;8.92;67.45
35676;BME280;21790;42.668;23.298;2023-01-31T05:16:41;94367.41;;;8.49;40.92
35676;BME280;21790;42.668;23.298;2023-01-31T05:21:46;94370.66;;;8.17;41.69
35676;BME280;21790;42.668;23.298;2023-01-31T05:24:28;94378.78;;;8.29;41.61
35676;BME280;21790;42.668;23.298;2023-01-31T05:27:00;94362.69;;;8.10;41.76
35676;BME280;21790;42.668;23.298;2023-01-31T05:29:28;94371.50;;;7.95;42.07
35676;BME280;21790;42.668;23.298;2023-01-31T05:31:56;94375.94;;;7.71;42.72
35676;BME280;21790;42.668;23.298;2023-01-31T05:34:22;94370.03;;;7.82;42.27
35676;BME280;21790;42.668;23.298;2023-01-31T05:36:50;94373.78;;;7.97;42.14
35676;BME280;21790;42.668;23.298;2023-01-31T05:39:15;94367.47;;;7.87;41.83
35676;BME280;21790;42.668;23.298;2023-01-31T05:41:41;94369.19;;;7.94;41.64
35676;BME280;21790;42.668;23.298;2023-01-31T05:44:06;94376.34;;;7.91;41.83
35676;BME280;21790;42.668;23.298;2023-01-31T05:46:34;94380.13;;;8.16;41.49
35676;BME280;21790;42.668;23.298;2023-01-31T05:48:59;94378.50;;;8.27;41.17
35676;BME280;21790;42.668;23.298;2023-01-31T05:51:25;94382.25;;;8.12;41.52
35676;BME280;21790;42.668;23.298;2023-01-31T05:53:50;94390.53;;;8.12;41.32
35676;BME280;21790;42.668;23.298;2023-01-31T05:56:16;94394.47;;;8.11;41.67
35676;BME280;21790;42.668;23.298;2023-01-31T05:58:42;94390.63;;;8.08;41.73
35676;BME280;21790;42.668;23.298;2023-01-31T06:01:08;94399.78;;;9.03;62.66
35676;BME280;21790;42.668;23.298;2023-01-31T06:03:33;94384.13;;;10.48;49.07
35676;BME280;21790;42.668;23.298;2023-01-31T06:05:59;94396.94;;;11.17;43.30
35676;BME280;21790;42.668;23.298;2023-01-31T06:08:24;94383.44;;;11.63;41.04
35676;BME280;21790;42.668;23.298;2023-01-31T06:10:52;94393.72;;;12.01;39.83
35676;BME280;21790;42.668;23.298;2023-01-31T06:13:17;94398.00;;;12.31;38.26
35676;BME280;21790;42.668;23.298;2023-01-31T06:15:43;94389.03;;;12.07;35.71
35676;BME280;21790;42.668;23.298;2023-01-31T06:18:09;94392.66;;;11.30;36.19
35676;BME280;21790;42.668;23.298;2023-01-31T06:20:35;94385.94;;;10.84;36.86
35676;BME280;21790;42.668;23.298;2023-01-31T06:23:00;94399.03;;;10.51;37.49
35676;BME280;21790;42.668;23.298;2023-01-31T06:25:27;94402.94;;;10.35;37.54
35676;BME280;21790;42.668;23.298;2023-01-31T06:27:54;94400.72;;;10.06;38.35
35676;BME280;21790;42.668;23.298;2023-01-31T06:30:20;94411.78;;;9.88;38.61
35676;BME280;21790;42.668;23.298;2023-01-31T06:32:45;94406.63;;;9.72;47.50
35676;BME280;21790;42.668;23.298;2023-01-31T06:35:13;94403.41;;;9.73;39.46
35676;BME280;21790;42.668;23.298;2023-01-31T06:37:39;94396.22;;;9.39;39.41
35676;BME280;21790;42.668;23.298;2023-01-31T06:40:05;94398.69;;;9.19;40.39
35676;BME280;21790;42.668;23.298;2023-01-31T06:42:31;94395.47;;;8.93;40.57
35676;BME280;21790;42.668;23.298;2023-01-31T06:44:56;94404.69;;;9.08;40.71
35676;BME280;21790;42.668;23.298;2023-01-31T06:47:22;94409.22;;;8.84;41.01
35676;BME280;21790;42.668;23.298;2023-01-31T06:49:47;94407.88;;;8.98;40.68
35676;BME280;21790;42.668;23.298;2023-01-31T07:08:45;94414.31;;;9.13;40.65
35676;BME280;21790;42.668;23.298;2023-01-31T07:11:11;94408.81;;;9.04;40.44
35676;BME280;21790;42.668;23.298;2023-01-31T07:13:36;94412.47;;;8.92;41.02
35676;BME280;21790;42.668;23.298;2023-01-31T07:16:02;94416.16;;;8.98;40.94
35676;BME280;21790;42.668;23.298;2023-01-31T07:18:27;94416.00;;;8.83;41.14
35676;BME280;21790;42.668;23.298;2023-01-31T07:20:54;94425.19;;;9.07;40.53
35676;BME280;21790;42.668;23.298;2023-01-31T07:23:21;94426.84;;;8.96;41.09
35676;BME280;21790;42.668;23.298;2023-01-31T07:25:46;94422.72;;;9.00;41.00
35676;BME280;21790;42.668;23.298;2023-01-31T07:28:11;94423.50;;;8.92;40.73
35676;BME280;21790;42.668;23.298;2023-01-31T07:30:37;94425.97;;;8.99;41.00
35676;BME280;21790;42.668;23.298;2023-01-31T07:33:04;94427.19;;;9.07;40.81
35676;BME280;21790;42.668;23.298;2023-01-31T07:35:29;94427.81;;;9.11;41.02
35676;BME280;21790;42.668;23.298;2023-01-31T07:37:55;94423.19;;;8.99;41.33
35676;BME280;21790;42.668;23.298;2023-01-31T07:45:32;94420.13;;;9.06;41.39
35676;BME280;21790;42.668;23.298;2023-01-31T07:48:04;94428.56;;;9.20;40.97
35676;BME280;21790;42.668;23.298;2023-01-31T07:50:31;94438.81;;;9.02;41.56
35676;BME280;21790;42.668;23.298;2023-01-31T07:52:57;94434.50;;;8.92;41.95
35676;BME280;21790;42.668;23.298;2023-01-31T07:58:01;94416.75;;;9.02;42.26
35676;BME280;21790;42.668;23.298;2023-01-31T08:00:27;94423.44;;;8.73;42.46
35676;BME280;21790;42.668;23.298;2023-01-31T08:05:40;94411.09;;;8.87;42.03
35676;BME280;21790;42.668;23.298;2023-01-31T08:08:10;94414.00;;;9.02;42.08
35676;BME280;21790;42.668;23.298;2023-01-31T08:10:36;94393.34;;;8.97;41.74
35676;BME280;21790;42.668;23.298;2023-01-31T08:13:32;94383.09;;;8.98;41.88
35676;BME280;21790;42.668;23.298;2023-01-31T08:26:34;94388.59;;;9.16;41.80
35676;BME280;21790;42.668;23.298;2023-01-31T08:29:00;94382.16;;;9.28;42.34
35676;BME280;21790;42.668;23.298;2023-01-31T08:31:26;94406.47;;;9.66;41.51
35676;BME280;21790;42.668;23.298;2023-01-31T08:33:53;94394.34;;;9.73;41.36
35676;BME280;21790;42.668;23.298;2023-01-31T08:36:22;94377.44;;;9.89;41.16
35676;BME280;21790;42.668;23.298;2023-01-31T08:38:49;94381.28;;;9.91;40.54
35676;BME280;21790;42.668;23.298;2023-01-31T08:41:15;94377.72;;;10.00;40.37
35676;BME280;21790;42.668;23.298;2023-01-31T08:43:43;94386.53;;;9.71;40.27
35676;BME280;21790;42.668;23.298;2023-01-31T08:46:08;94390.34;;;9.83;40.14
35676;BME280;21790;42.668;23.298;2023-01-31T08:48:35;94376.53;;;9.83;40.71
35676;BME280;21790;42.668;23.298;2023-01-31T08:51:11;94387.06;;;10.02;41.00
35676;BME280;21790;42.668;23.298;2023-01-31T08:53:39;94391.50;;;10.09;40.49
35676;BME280;21790;42.668;23.298;2023-01-31T08:56:07;94409.63;;;10.43;40.48
35676;BME280;21790;42.668;23.298;2023-01-31T08:58:38;94381.41;;;10.72;40.52
35676;BME280;21790;42.668;23.298;2023-01-31T09:01:10;94373.22;;;11.01;39.90
35676;BME280;21790;42.668;23.298;2023-01-31T09:03:37;94382.03;;;11.14;39.20
35676;BME280;21790;42.668;23.298;2023-01-31T09:06:06;94391.53;;;11.37;39.21
35676;BME280;21790;42.668;23.298;2023-01-31T09:08:32;94386.69;;;11.47;38.14
35676;BME280;21790;42.668;23.298;2023-01-31T09:10:58;94378.00;;;11.68;37.62
35676;BME280;21790;42.668;23.298;2023-01-31T09:13:28;94388.88;;;11.57;37.79
35676;BME280;21790;42.668;23.298;2023-01-31T09:18:33;94377.34;;;11.44;36.92
35676;BME280;21790;42.668;23.298;2023-01-31T09:21:07;94403.91;;;11.80;37.66
35676;BME280;21790;42.668;23.298;2023-01-31T09:23:34;94371.50;;;11.42;37.33
35676;BME280;21790;42.668;23.298;2023-01-31T09:26:00;94411.31;;;11.45;37.64
35676;BME280;21790;42.668;23.298;2023-01-31T09:28:26;94372.28;;;11.04;38.00
35676;BME280;21790;42.668;23.298;2023-01-31T09:30:52;94374.50;;;10.91;38.90
35676;BME280;21790;42.668;23.298;2023-01-31T09:38:31;94365.88;;;11.37;37.77
35676;BME280;21790;42.668;23.298;2023-01-31T09:54:20;94372.22;;;13.15;35.56
35676;BME280;21790;42.668;23.298;2023-01-31T09:57:01;94345.63;;;12.88;35.40
35676;BME280;21790;42.668;23.298;2023-01-31T09:59:38;94330.41;;;13.19;35.34
35676;BME280;21790;42.668;23.298;2023-01-31T10:05:05;94356.16;;;13.97;33.89
35676;BME280;21790;42.668;23.298;2023-01-31T10:10:55;94329.13;;;12.99;34.99
35676;BME280;21790;42.668;23.298;2023-01-31T10:13:35;94319.25;;;13.13;35.14
35676;BME280;21790;42.668;23.298;2023-01-31T10:16:30;94329.41;;;13.68;34.66
35676;BME280;21790;42.668;23.298;2023-01-31T10:24:15;94306.19;;;13.71;34.03
35676;BME280;21790;42.668;23.298;2023-01-31T10:29:30;94341.75;;;13.21;34.78
35676;BME280;21790;42.668;23.298;2023-01-31T10:32:05;94319.97;;;13.34;34.13
35676;BME280;21790;42.668;23.298;2023-01-31T10:34:46;94316.66;;;13.30;33.42
35676;BME280;21790;42.668;23.298;2023-01-31T10:40:25;94312.13;;;12.72;34.02
35676;BME280;21790;42.668;23.298;2023-01-31T10:42:59;94304.09;;;12.19;34.57
35676;BME280;21790;42.668;23.298;2023-01-31T10:45:27;94345.38;;;12.16;35.43
35676;BME280;21790;42.668;23.298;2023-01-31T10:53:46;94326.25;;;12.19;35.57
35676;BME280;21790;42.668;23.298;2023-01-31T11:06:43;94327.91;;;10.60;37.91
35676;BME280;21790;42.668;23.298;2023-01-31T11:09:09;94362.63;;;10.76;37.95
35676;BME280;21790;42.668;23.298;2023-01-31T11:12:01;94341.25;;;10.85;37.97
35676;BME280;21790;42.668;23.298;2023-01-31T11:14:30;94324.25;;;10.78;37.96
35676;BME280;21790;42.668;23.298;2023-01-31T11:17:06;94341.72;;;10.84;38.38
35676;BME280;21790;42.668;23.298;2023-01-31T11:19:51;94357.09;;;11.00;38.53
35676;BME280;21790;42.668;23.298;2023-01-31T11:25:19;94341.06;;;10.41;38.99
35676;BME280;21790;42.668;23.298;2023-01-31T11:27:47;94336.81;;;9.89;40.01
35676;BME280;21790;42.668;23.298;2023-01-31T11:32:45;94335.22;;;9.64;40.91
35676;BME280;21790;42.668;23.298;2023-01-31T11:47:52;94335.53;;;9.99;40.42
35676;BME280;21790;42.668;23.298;2023-01-31T11:52:57;94342.47;;;9.95;40.93
35676;BME280;21790;42.668;23.298;2023-01-31T11:58:00;94338.25;;;9.66;41.77
35676;BME280;21790;42.668;23.298;2023-01-31T12:00:31;94348.50;;;9.84;41.22
35676;BME280;21790;42.668;23.298;2023-01-31T12:03:04;94337.59;;;9.90;41.14
35676;BME280;21790;42.668;23.298;2023-01-31T12:05:45;94357.16;;;10.01;40.90
35676;BME280;21790;42.668;23.298;2023-01-31T12:08:37;94361.47;;;9.93;41.38
35676;BME280;21790;42.668;23.298;2023-01-31T12:11:26;94350.94;;;9.91;41.10
35676;BME280;21790;42.668;23.298;2023-01-31T12:14:00;94349.47;;;10.14;41.11
35676;BME280;21790;42.668;23.298;2023-01-31T12:16:28;94343.38;;;10.01;40.96
35676;BME280;21790;42.668;23.298;2023-01-31T12:19:20;94359.84;;;10.28;40.80
35676;BME280;21790;42.668;23.298;2023-01-31T12:22:07;94344.25;;;10.07;41.39
35676;BME280;21790;42.668;23.298;2023-01-31T12:40:38;94364.38;;;9.98;40.75
35676;BME280;21790;42.668;23.298;2023-01-31T12:46:01;94365.59;;;10.06;40.81
35676;BME280;21790;42.668;23.298;2023-01-31T12:48:37;94371.31;;;10.36;40.43
35676;BME280;21790;42.668;23.298;2023-01-31T12:56:39;94373.50;;;9.81;40.54
35676;BME280;21790;42.668;23.298;2023-01-31T13:01:47;94367.75;;;10.02;40.25
35676;BME280;21790;42.668;23.298;2023-01-31T13:07:02;94375.53;;;10.22;39.94
35676;BME280;21790;42.668;23.298;2023-01-31T13:12:14;94363.28;;;10.14;40.22
35676;BME280;21790;42.668;23.298;2023-01-31T13:14:41;94373.06;;;10.15;40.54
35676;BME280;21790;42.668;23.298;2023-01-31T13:19:53;94374.00;;;10.12;39.94
35676;BME280;21790;42.668;23.298;2023-01-31T13:22:22;94385.09;;;10.03;40.28
35676;BME280;21790;42.668;23.298;2023-01-31T13:24:52;94377.91;;;9.87;40.21
35676;BME280;21790;42.668;23.298;2023-01-31T13:27:26;94377.13;;;9.96;40.34
35676;BME280;21790;42.668;23.298;2023-01-31T13:30:00;94381.22;;;10.19;39.78
35676;BME280;21790;42.668;23.298;2023-01-31T13:34:59;94378.53;;;10.33;39.83
35676;BME280;21790;42.668;23.298;2023-01-31T13:37:27;94390.38;;;10.16;40.04
35676;BME280;21790;42.668;23.298;2023-01-31T13:42:23;94385.72;;;9.89;40.85
35676;BME280;21790;42.668;23.298;2023-01-31T13:44:52;94378.94;;;10.08;40.46
35676;BME280;21790;42.668;23.298;2023-01-31T13:47:20;94382.28;;;10.12;40.13
35676;BME280;21790;42.668;23.298;2023-01-31T13:49:49;94387.22;;;9.99;40.43
35676;BME280;21790;42.668;23.298;2023-01-31T13:52:20;94362.19;;;9.70;40.47
35676;BME280;21790;42.668;23.298;2023-01-31T13:54:49;94381.47;;;9.79;40.60
35676;BME280;21790;42.668;23.298;2023-01-31T13:57:19;94392.78;;;9.90;40.54
35676;BME280;21790;42.668;23.298;2023-01-31T13:59:51;94394.59;;;10.02;40.25
35676;BME280;21790;42.668;23.298;2023-01-31T14:02:17;94394.75;;;9.98;40.20
35676;BME280;21790;42.668;23.298;2023-01-31T14:04:44;94391.25;;;9.98;40.48
35676;BME280;21790;42.668;23.298;2023-01-31T14:09:38;94404.75;;;9.78;40.31
35676;BME280;21790;42.668;23.298;2023-01-31T14:22:15;94398.56;;;10.01;40.00
35676;BME280;21790;42.668;23.298;2023-01-31T14:27:32;94409.94;;;10.03;39.67
35676;BME280;21790;42.668;23.298;2023-01-31T14:52:58;94436.94;;;9.90;39.50
35676;BME280;21790;42.668;23.298;2023-01-31T14:58:21;94441.84;;;9.95;39.55
35676;BME280;21790;42.668;23.298;2023-01-31T15:00:55;94447.34;;;9.95;39.83
35676;BME280;21790;42.668;23.298;2023-01-31T15:03:29;94452.41;;;9.87;39.83
35676;BME280;21790;42.668;23.298;2023-01-31T15:06:10;94463.19;;;9.76;40.16
35676;BME280;21790;42.668;23.298;2023-01-31T15:13:55;94435.31;;;9.65;40.44
35676;BME280;21790;42.668;23.298;2023-01-31T15:16:34;94474.06;;;9.80;40.60
35676;BME280;21790;42.668;23.298;2023-01-31T15:19:19;94429.03;;;9.46;40.83
35676;BME280;21790;42.668;23.298;2023-01-31T15:21:58;94452.03;;;9.43;40.95
35676;BME280;21790;42.668;23.298;2023-01-31T15:24:33;94443.56;;;9.29;41.31
35676;BME280;21790;42.668;23.298;2023-01-31T15:27:02;94475.91;;;9.46;41.20
35676;BME280;21790;42.668;23.298;2023-01-31T15:29:51;94464.09;;;9.55;41.29
35676;BME280;21790;42.668;23.298;2023-01-31T15:32:25;94453.22;;;9.33;41.56
35676;BME280;21790;42.668;23.298;2023-01-31T15:34:56;94460.44;;;9.40;41.24
35676;BME280;21790;42.668;23.298;2023-01-31T15:37:33;94485.13;;;9.43;41.28
35676;BME280;21790;42.668;23.298;2023-01-31T15:40:20;94480.22;;;9.47;41.37
35676;BME280;21790;42.668;23.298;2023-01-31T15:42:48;94495.06;;;9.50;40.97
35676;BME280;21790;42.668;23.298;2023-01-31T15:45:28;94491.84;;;9.70;40.72
35676;BME280;21790;42.668;23.298;2023-01-31T15:47:57;94467.31;;;9.35;41.17
35676;BME280;21790;42.668;23.298;2023-01-31T15:50:24;94471.91;;;9.38;41.29
35676;BME280;21790;42.668;23.298;2023-01-31T15:52:53;94469.16;;;9.29;41.18
35676;BME280;21790;42.668;23.298;2023-01-31T15:55:19;94467.31;;;9.35;40.87
35676;BME280;21790;42.668;23.298;2023-01-31T15:57:56;94490.63;;;9.61;40.68
35676;BME280;21790;42.668;23.298;2023-01-31T16:00:26;94507.47;;;9.36;40.99
35676;BME280;21790;42.668;23.298;2023-01-31T16:02:56;94482.19;;;9.47;40.51
35676;BME280;21790;42.668;23.298;2023-01-31T16:05:31;94475.63;;;9.53;40.36
35676;BME280;21790;42.668;23.298;2023-01-31T16:08:35;94517.59;;;9.94;40.09
35676;BME280;21790;42.668;23.298;2023-01-31T16:13:37;94492.16;;;9.44;40.43
35676;BME280;21790;42.668;23.298;2023-01-31T16:16:05;94510.84;;;9.49;40.27
35676;BME280;21790;42.668;23.298;2023-01-31T16:18:32;94529.84;;;9.47;41.23
35676;BME280;21790;42.668;23.298;2023-01-31T16:23:42;94526.50;;;9.98;39.50
35676;BME280;21790;42.668;23.298;2023-01-31T16:26:23;94515.00;;;9.54;40.39
35676;BME280;21790;42.668;23.298;2023-01-31T16:28:57;94510.41;;;9.69;54.25
35676;BME280;21790;42.668;23.298;2023-01-31T16:31:28;94515.25;;;10.29;39.93
35676;BME280;21790;42.668;23.298;2023-01-31T16:34:00;94516.81;;;10.12;39.79
35676;BME280;21790;42.668;23.298;2023-01-31T16:36:32;94510.25;;;9.82;40.00
35676;BME280;21790;42.668;23.298;2023-01-31T16:39:09;94534.00;;;9.88;40.11
35676;BME280;21790;42.668;23.298;2023-01-31T16:41:48;94551.03;;;9.87;39.95
35676;BME280;21790;42.668;23.298;2023-01-31T16:44:20;94517.75;;;9.72;39.42
35676;BME280;21790;42.668;23.298;2023-01-31T16:46:49;94548.88;;;9.91;39.84
35676;BME280;21790;42.668;23.298;2023-01-31T16:49:27;94527.41;;;9.58;40.29
35676;BME280;21790;42.668;23.298;2023-01-31T16:52:16;94552.84;;;9.99;39.78
35676;BME280;21790;42.668;23.298;2023-01-31T16:54:52;94556.09;;;9.79;39.52
35676;BME280;21790;42.668;23.298;2023-01-31T17:00:32;94559.59;;;9.89;39.45
35676;BME280;21790;42.668;23.298;2023-01-31T17:02:59;94562.78;;;9.51;40.33
35676;BME280;21790;42.668;23.298;2023-01-31T17:08:51;94570.34;;;9.69;40.34
35676;BME280;21790;42.668;23.298;2023-01-31T17:21:39;94589.03;;;9.64;39.91
35676;BME280;21790;42.668;23.298;2023-01-31T17:24:13;94588.09;;;9.68;40.29
35676;BME280;21790;42.668;23.298;2023-01-31T17:26:40;94583.50;;;9.55;39.84
35676;BME280;21790;42.668;23.298;2023-01-31T17:34:17;94576.13;;;9.52;40.08
35676;BME280;21790;42.668;23.298;2023-01-31T17:44:48;94598.53;;;9.73;39.81
35676;BME280;21790;42.668;23.298;2023-01-31T17:47:15;94589.66;;;9.59;40.25
35676;BME280;21790;42.668;23.298;2023-01-31T18:18:56;94628.81;;;9.36;40.21
35676;BME280;21790;42.668;23.298;2023-01-31T18:42:26;94660.78;;;9.64;39.97
35676;BME280;21790;42.668;23.298;2023-01-31T18:51:00;94664.06;;;9.41;40.75
35676;BME280;21790;42.668;23.298;2023-01-31T19:48:36;94666.09;;;10.17;39.58
35676;BME280;21790;42.668;23.298;2023-01-31T19:57:48;94673.47;;;9.62;40.80
35676;BME280;21790;42.668;23.298;2023-01-31T20:19:12;94701.34;;;9.55;40.39
35676;BME280;21790;42.668;23.298;2023-01-31T20:21:58;94709.16;;;9.56;40.65
35676;BME280;21790;42.668;23.298;2023-01-31T20:27:47;94706.88;;;9.24;40.82
35676;BME280;21790;42.668;23.298;2023-01-31T20:30:24;94710.75;;;9.27;40.85
35676;BME280;21790;42.668;23.298;2023-01-31T20:36:12;94716.47;;;9.41;40.58